sensor_id;sensor_type;location;lat;lon;timestamp;temperature;humidity
48752;DHT22;34544;48.836;9.174;2023-06-22T00:01:05;20.90;99.90
48752;DHT22;34544;48.836;9.174;2023-06-22T00:03:31;20.90;99.90
48752;DHT22;34544;48.836;9.174;2023-06-22T00:05:57;20.90;99.90
48752;DHT22;34544;48.836;9.174;2023-06-22T00:08:23;20.80;99.90
48752;DHT22;34544;48.836;9.174;2023-06-22T00:10:48;20.80;99.90
48752;DHT22;34544;48.836;9.174;2023-06-22T00:13:14;20.70;99.90
48752;DHT22;34544;48.836;9.174;2023-06-22T00:15:41;20.70;99.90
48752;DHT22;34544;48.836;9.174;2023-06-22T00:18:07;20.70;99.90
48752;DHT22;34544;48.836;9.174;2023-06-22T00:20:33;20.70;99.90
48752;DHT22;34544;48.836;9.174;2023-06-22T00:22:59;20.60;99.90
48752;DHT22;34544;48.836;9.174;2023-06-22T00:25:26;20.70;99.90
48752;DHT22;34544;48.836;9.174;2023-06-22T00:27:51;20.70;99.90
48752;DHT22;34544;48.836;9.174;2023-06-22T00:30:18;20.70;99.90
48752;DHT22;34544;48.836;9.174;2023-06-22T00:32:45;20.60;99.90
48752;DHT22;34544;48.836;9.174;2023-06-22T00:35:13;20.60;99.90
48752;DHT22;34544;48.836;9.174;2023-06-22T00:37:39;20.60;99.90
48752;DHT22;34544;48.836;9.174;2023-06-22T00:40:08;20.50;99.90
48752;DHT22;34544;48.836;9.174;2023-06-22T00:42:37;20.50;99.90
48752;DHT22;34544;48.836;9.174;2023-06-22T00:45:03;20.50;99.90
48752;DHT22;34544;48.836;9.174;2023-06-22T00:47:28;20.40;99.90
48752;DHT22;34544;48.836;9.174;2023-06-22T00:49:54;20.40;99.90
48752;DHT22;34544;48.836;9.174;2023-06-22T00:52:21;20.40;99.90
48752;DHT22;34544;48.836;9.174;2023-06-22T00:54:53;20.40;99.90
48752;DHT22;34544;48.836;9.174;2023-06-22T00:57:20;20.30;99.90
48752;DHT22;34544;48.836;9.174;2023-06-22T00:59:48;20.30;99.90
48752;DHT22;34544;48.836;9.174;2023-06-22T01:02:14;20.30;99.90
48752;DHT22;34544;48.836;9.174;2023-06-22T01:04:40;20.30;99.90
48752;DHT22;34544;48.836;9.174;2023-06-22T01:09:57;20.30;99.90
48752;DHT22;34544;48.836;9.174;2023-06-22T01:12:26;20.30;99.90
48752;DHT22;34544;48.836;9.174;2023-06-22T01:15:10;20.30;99.90
48752;DHT22;34544;48.836;9.174;2023-06-22T01:17:40;20.40;99.90
48752;DHT22;34544;48.836;9.174;2023-06-22T01:20:10;20.40;99.90
48752;DHT22;34544;48.836;9.174;2023-06-22T01:23:05;20.30;99.90
48752;DHT22;34544;48.836;9.174;2023-06-22T01:25:49;20.40;99.90
48752;DHT22;34544;48.836;9.174;2023-06-22T01:28:47;20.30;99.90
48752;DHT22;34544;48.836;9.174;2023-06-22T01:31:23;20.30;99.90
48752;DHT22;34544;48.836;9.174;2023-06-22T01:33:55;20.30;99.90
48752;DHT22;34544;48.836;9.174;2023-06-22T01:36:23;20.20;99.90
48752;DHT22;34544;48.836;9.174;2023-06-22T01:38:50;20.20;99.90
48752;DHT22;34544;48.836;9.174;2023-06-22T01:41:20;20.10;99.90
48752;DHT22;34544;48.836;9.174;2023-06-22T01:43:47;20.10;99.90
48752;DHT22;34544;48.836;9.174;2023-06-22T01:46:13;20.00;99.90
48752;DHT22;34544;48.836;9.174;2023-06-22T01:48:40;20.00;99.90
48752;DHT22;34544;48.836;9.174;2023-06-22T01:53:32;20.00;99.90
48752;DHT22;34544;48.836;9.174;2023-06-22T01:55:57;20.00;99.90
48752;DHT22;34544;48.836;9.174;2023-06-22T01:58:27;19.90;99.90
48752;DHT22;34544;48.836;9.174;2023-06-22T02:01:14;20.00;99.90
48752;DHT22;34544;48.836;9.174;2023-06-22T02:03:44;20.00;99.90
48752;DHT22;34544;48.836;9.174;2023-06-22T02:06:19;20.00;99.90
48752;DHT22;34544;48.836;9.174;2023-06-22T02:08:51;20.00;99.90
48752;DHT22;34544;48.836;9.174;2023-06-22T02:11:20;20.00;99.90
48752;DHT22;34544;48.836;9.174;2023-06-22T02:13:47;19.90;99.90
48752;DHT22;34544;48.836;9.174;2023-06-22T02:16:14;19.90;99.90
48752;DHT22;34544;48.836;9.174;2023-06-22T02:21:19;19.80;99.90
48752;DHT22;34544;48.836;9.174;2023-06-22T02:23:46;19.80;99.90
48752;DHT22;34544;48.836;9.174;2023-06-22T02:26:12;19.70;99.90
48752;DHT22;34544;48.836;9.174;2023-06-22T02:28:37;19.60;99.90
48752;DHT22;34544;48.836;9.174;2023-06-22T02:31:03;19.60;99.90
48752;DHT22;34544;48.836;9.174;2023-06-22T02:33:29;19.70;99.90
48752;DHT22;34544;48.836;9.174;2023-06-22T02:35:55;19.60;99.90
48752;DHT22;34544;48.836;9.174;2023-06-22T02:43:17;19.50;99.90
48752;DHT22;34544;48.836;9.174;2023-06-22T02:45:43;19.60;99.90
48752;DHT22;34544;48.836;9.174;2023-06-22T02:48:10;19.50;99.90
48752;DHT22;34544;48.836;9.174;2023-06-22T02:50:36;19.50;99.90
48752;DHT22;34544;48.836;9.174;2023-06-22T02:53:03;19.40;99.90
48752;DHT22;34544;48.836;9.174;2023-06-22T02:55:33;19.30;99.90
48752;DHT22;34544;48.836;9.174;2023-06-22T02:57:59;19.30;99.90
48752;DHT22;34544;48.836;9.174;2023-06-22T03:00:27;19.30;99.90
48752;DHT22;34544;48.836;9.174;2023-06-22T03:02:57;19.20;99.90
48752;DHT22;34544;48.836;9.174;2023-06-22T03:05:23;19.20;99.90
48752;DHT22;34544;48.836;9.174;2023-06-22T03:07:49;19.20;99.90
48752;DHT22;34544;48.836;9.174;2023-06-22T03:10:16;19.20;99.90
48752;DHT22;34544;48.836;9.174;2023-06-22T03:12:43;19.10;99.90
48752;DHT22;34544;48.836;9.174;2023-06-22T03:15:10;19.20;99.90
48752;DHT22;34544;48.836;9.174;2023-06-22T03:17:37;19.10;99.90
48752;DHT22;34544;48.836;9.174;2023-06-22T03:20:08;19.20;99.90
48752;DHT22;34544;48.836;9.174;2023-06-22T03:22:36;19.10;99.90
48752;DHT22;34544;48.836;9.174;2023-06-22T03:25:02;19.10;99.90
48752;DHT22;34544;48.836;9.174;2023-06-22T03:27:28;19.10;99.90
48752;DHT22;34544;48.836;9.174;2023-06-22T03:29:56;19.10;99.90
48752;DHT22;34544;48.836;9.174;2023-06-22T03:32:22;19.20;99.90
48752;DHT22;34544;48.836;9.174;2023-06-22T03:34:47;19.10;99.90
48752;DHT22;34544;48.836;9.174;2023-06-22T03:37:14;19.20;99.90
48752;DHT22;34544;48.836;9.174;2023-06-22T03:39:41;19.20;99.90
48752;DHT22;34544;48.836;9.174;2023-06-22T03:42:08;19.20;99.90
48752;DHT22;34544;48.836;9.174;2023-06-22T03:44:34;19.30;99.90
48752;DHT22;34544;48.836;9.174;2023-06-22T03:47:02;19.20;99.90
48752;DHT22;34544;48.836;9.174;2023-06-22T03:49:28;19.20;99.90
48752;DHT22;34544;48.836;9.174;2023-06-22T03:51:54;19.20;99.90
48752;DHT22;34544;48.836;9.174;2023-06-22T03:54:19;19.20;99.90
48752;DHT22;34544;48.836;9.174;2023-06-22T03:56:45;19.20;99.90
48752;DHT22;34544;48.836;9.174;2023-06-22T03:59:11;19.20;99.90
48752;DHT22;34544;48.836;9.174;2023-06-22T04:01:36;19.20;99.90
48752;DHT22;34544;48.836;9.174;2023-06-22T04:04:02;19.20;99.90
48752;DHT22;34544;48.836;9.174;2023-06-22T04:06:28;19.20;99.90
48752;DHT22;34544;48.836;9.174;2023-06-22T04:08:53;19.20;99.90
48752;DHT22;34544;48.836;9.174;2023-06-22T04:11:19;19.30;99.90
48752;DHT22;34544;48.836;9.174;2023-06-22T04:13:45;19.30;99.90
48752;DHT22;34544;48.836;9.174;2023-06-22T04:16:10;19.40;99.90
48752;DHT22;34544;48.836;9.174;2023-06-22T04:18:36;19.40;99.90
48752;DHT22;34544;48.836;9.174;2023-06-22T04:21:02;19.50;99.90
48752;DHT22;34544;48.836;9.174;2023-06-22T04:23:28;19.50;99.90
48752;DHT22;34544;48.836;9.174;2023-06-22T04:25:54;19.50;99.90
48752;DHT22;34544;48.836;9.174;2023-06-22T04:28:22;19.60;99.90
48752;DHT22;34544;48.836;9.174;2023-06-22T04:30:47;19.60;99.90
48752;DHT22;34544;48.836;9.174;2023-06-22T04:33:14;19.60;99.90
48752;DHT22;34544;48.836;9.174;2023-06-22T04:35:40;19.70;99.90
48752;DHT22;34544;48.836;9.174;2023-06-22T04:38:07;19.80;99.90
48752;DHT22;34544;48.836;9.174;2023-06-22T04:40:33;19.90;99.90
48752;DHT22;34544;48.836;9.174;2023-06-22T04:42:58;19.90;99.90
48752;DHT22;34544;48.836;9.174;2023-06-22T04:45:28;19.90;99.90
48752;DHT22;34544;48.836;9.174;2023-06-22T04:47:54;20.00;99.90
48752;DHT22;34544;48.836;9.174;2023-06-22T04:50:20;20.00;99.90
48752;DHT22;34544;48.836;9.174;2023-06-22T04:52:47;20.10;99.90
48752;DHT22;34544;48.836;9.174;2023-06-22T04:55:14;20.10;99.90
48752;DHT22;34544;48.836;9.174;2023-06-22T04:57:47;20.20;99.90
48752;DHT22;34544;48.836;9.174;2023-06-22T05:00:18;20.30;99.90
48752;DHT22;34544;48.836;9.174;2023-06-22T05:05:12;20.40;99.90
48752;DHT22;34544;48.836;9.174;2023-06-22T05:07:45;20.50;99.90
48752;DHT22;34544;48.836;9.174;2023-06-22T05:10:14;20.60;99.90
48752;DHT22;34544;48.836;9.174;2023-06-22T05:12:40;20.60;99.90
48752;DHT22;34544;48.836;9.174;2023-06-22T05:15:08;20.80;99.90
48752;DHT22;34544;48.836;9.174;2023-06-22T05:17:35;20.90;99.90
48752;DHT22;34544;48.836;9.174;2023-06-22T05:20:01;21.00;99.90
48752;DHT22;34544;48.836;9.174;2023-06-22T05:32:12;21.40;99.90
48752;DHT22;34544;48.836;9.174;2023-06-22T05:34:38;21.50;99.90
48752;DHT22;34544;48.836;9.174;2023-06-22T05:37:04;21.60;99.90
48752;DHT22;34544;48.836;9.174;2023-06-22T05:39:30;21.80;99.90
48752;DHT22;34544;48.836;9.174;2023-06-22T05:41:55;21.80;99.90
48752;DHT22;34544;48.836;9.174;2023-06-22T05:44:21;21.80;99.90
48752;DHT22;34544;48.836;9.174;2023-06-22T05:46:47;21.80;99.90
48752;DHT22;34544;48.836;9.174;2023-06-22T05:49:14;21.80;99.90
48752;DHT22;34544;48.836;9.174;2023-06-22T05:51:40;21.90;99.90
48752;DHT22;34544;48.836;9.174;2023-06-22T05:56:33;22.10;99.90
48752;DHT22;34544;48.836;9.174;2023-06-22T05:58:59;22.10;99.90
48752;DHT22;34544;48.836;9.174;2023-06-22T06:01:24;22.20;99.90
48752;DHT22;34544;48.836;9.174;2023-06-22T06:03:51;22.20;99.90
48752;DHT22;34544;48.836;9.174;2023-06-22T06:06:18;22.30;99.90
48752;DHT22;34544;48.836;9.174;2023-06-22T06:08:46;22.30;99.90
48752;DHT22;34544;48.836;9.174;2023-06-22T06:11:12;22.30;99.90
48752;DHT22;34544;48.836;9.174;2023-06-22T06:13:37;22.30;99.90
48752;DHT22;34544;48.836;9.174;2023-06-22T06:16:03;22.30;99.90
48752;DHT22;34544;48.836;9.174;2023-06-22T06:18:29;22.30;99.90
48752;DHT22;34544;48.836;9.174;2023-06-22T06:20:54;22.40;99.90
48752;DHT22;34544;48.836;9.174;2023-06-22T06:23:20;22.40;99.90
48752;DHT22;34544;48.836;9.174;2023-06-22T06:25:46;22.50;99.90
48752;DHT22;34544;48.836;9.174;2023-06-22T06:28:11;22.50;99.90
48752;DHT22;34544;48.836;9.174;2023-06-22T06:30:37;22.60;99.90
48752;DHT22;34544;48.836;9.174;2023-06-22T06:33:03;22.70;99.90
48752;DHT22;34544;48.836;9.174;2023-06-22T06:35:34;22.80;99.90
48752;DHT22;34544;48.836;9.174;2023-06-22T06:40:26;22.90;99.90
48752;DHT22;34544;48.836;9.174;2023-06-22T06:42:52;23.00;99.90
48752;DHT22;34544;48.836;9.174;2023-06-22T06:45:19;23.00;99.90
48752;DHT22;34544;48.836;9.174;2023-06-22T06:47:45;23.10;99.90
48752;DHT22;34544;48.836;9.174;2023-06-22T06:50:11;23.10;99.90
48752;DHT22;34544;48.836;9.174;2023-06-22T06:52:37;23.20;99.90
48752;DHT22;34544;48.836;9.174;2023-06-22T06:55:02;23.30;99.90
48752;DHT22;34544;48.836;9.174;2023-06-22T06:57:32;23.40;99.90
48752;DHT22;34544;48.836;9.174;2023-06-22T06:59:59;23.50;99.90
48752;DHT22;34544;48.836;9.174;2023-06-22T07:04:53;23.80;99.90
48752;DHT22;34544;48.836;9.174;2023-06-22T07:07:20;24.00;99.90
48752;DHT22;34544;48.836;9.174;2023-06-22T07:12:12;24.50;99.90
48752;DHT22;34544;48.836;9.174;2023-06-22T07:14:38;24.70;99.90
48752;DHT22;34544;48.836;9.174;2023-06-22T07:17:04;24.90;99.90
48752;DHT22;34544;48.836;9.174;2023-06-22T07:19:30;25.00;99.90
48752;DHT22;34544;48.836;9.174;2023-06-22T07:21:57;25.30;99.90
48752;DHT22;34544;48.836;9.174;2023-06-22T07:24:23;25.50;99.90
48752;DHT22;34544;48.836;9.174;2023-06-22T07:26:50;25.80;99.90
48752;DHT22;34544;48.836;9.174;2023-06-22T07:29:19;26.00;99.90
48752;DHT22;34544;48.836;9.174;2023-06-22T07:31:47;26.20;99.90
48752;DHT22;34544;48.836;9.174;2023-06-22T07:34:13;26.40;99.90
48752;DHT22;34544;48.836;9.174;2023-06-22T07:36:39;26.50;99.90
48752;DHT22;34544;48.836;9.174;2023-06-22T07:39:05;26.70;99.90
48752;DHT22;34544;48.836;9.174;2023-06-22T07:41:31;26.70;99.90
48752;DHT22;34544;48.836;9.174;2023-06-22T07:43:57;26.90;99.90
48752;DHT22;34544;48.836;9.174;2023-06-22T07:46:23;26.90;99.90
48752;DHT22;34544;48.836;9.174;2023-06-22T07:48:49;27.00;99.90
48752;DHT22;34544;48.836;9.174;2023-06-22T07:51:14;27.20;99.90
48752;DHT22;34544;48.836;9.174;2023-06-22T07:53:44;27.50;99.90
48752;DHT22;34544;48.836;9.174;2023-06-22T07:56:11;27.70;99.90
48752;DHT22;34544;48.836;9.174;2023-06-22T07:58:37;27.90;99.90
48752;DHT22;34544;48.836;9.174;2023-06-22T08:01:02;28.00;99.90
48752;DHT22;34544;48.836;9.174;2023-06-22T08:03:28;28.10;99.90
48752;DHT22;34544;48.836;9.174;2023-06-22T08:05:55;28.40;99.90
48752;DHT22;34544;48.836;9.174;2023-06-22T08:08:21;28.40;99.90
48752;DHT22;34544;48.836;9.174;2023-06-22T08:10:46;28.60;99.90
48752;DHT22;34544;48.836;9.174;2023-06-22T08:13:12;28.80;99.90
48752;DHT22;34544;48.836;9.174;2023-06-22T08:15:37;29.00;99.90
48752;DHT22;34544;48.836;9.174;2023-06-22T08:18:03;29.10;99.90
48752;DHT22;34544;48.836;9.174;2023-06-22T08:20:29;29.20;99.90
48752;DHT22;34544;48.836;9.174;2023-06-22T08:22:55;29.40;99.90
48752;DHT22;34544;48.836;9.174;2023-06-22T08:25:23;29.70;99.90
48752;DHT22;34544;48.836;9.174;2023-06-22T08:27:49;30.10;99.90
48752;DHT22;34544;48.836;9.174;2023-06-22T08:30:15;30.40;99.90
48752;DHT22;34544;48.836;9.174;2023-06-22T08:32:41;30.50;99.90
48752;DHT22;34544;48.836;9.174;2023-06-22T08:35:07;30.30;99.90
48752;DHT22;34544;48.836;9.174;2023-06-22T08:37:35;30.30;99.90
48752;DHT22;34544;48.836;9.174;2023-06-22T08:40:03;30.30;99.90
48752;DHT22;34544;48.836;9.174;2023-06-22T08:42:40;30.20;99.90
48752;DHT22;34544;48.836;9.174;2023-06-22T08:45:07;30.00;99.90
48752;DHT22;34544;48.836;9.174;2023-06-22T08:47:33;29.90;99.90
48752;DHT22;34544;48.836;9.174;2023-06-22T08:49:59;29.70;99.90
48752;DHT22;34544;48.836;9.174;2023-06-22T08:52:24;29.80;99.90
48752;DHT22;34544;48.836;9.174;2023-06-22T08:54:50;29.80;99.90
48752;DHT22;34544;48.836;9.174;2023-06-22T08:57:16;30.10;99.90
48752;DHT22;34544;48.836;9.174;2023-06-22T08:59:42;30.60;99.90
48752;DHT22;34544;48.836;9.174;2023-06-22T09:02:08;31.00;99.90
48752;DHT22;34544;48.836;9.174;2023-06-22T09:04:34;31.20;99.90
48752;DHT22;34544;48.836;9.174;2023-06-22T09:07:01;31.40;99.90
48752;DHT22;34544;48.836;9.174;2023-06-22T09:09:27;31.60;99.90
48752;DHT22;34544;48.836;9.174;2023-06-22T09:11:52;31.60;99.90
48752;DHT22;34544;48.836;9.174;2023-06-22T09:14:18;31.60;99.90
48752;DHT22;34544;48.836;9.174;2023-06-22T09:16:44;31.60;99.90
48752;DHT22;34544;48.836;9.174;2023-06-22T09:19:09;31.80;99.90
48752;DHT22;34544;48.836;9.174;2023-06-22T09:21:36;31.90;99.90
48752;DHT22;34544;48.836;9.174;2023-06-22T09:24:02;32.00;99.90
48752;DHT22;34544;48.836;9.174;2023-06-22T09:26:27;32.00;99.90
48752;DHT22;34544;48.836;9.174;2023-06-22T09:28:53;32.20;99.90
48752;DHT22;34544;48.836;9.174;2023-06-22T09:31:18;32.40;99.90
48752;DHT22;34544;48.836;9.174;2023-06-22T09:33:53;32.50;99.90
48752;DHT22;34544;48.836;9.174;2023-06-22T09:36:20;32.70;99.90
48752;DHT22;34544;48.836;9.174;2023-06-22T09:38:47;33.00;99.90
48752;DHT22;34544;48.836;9.174;2023-06-22T09:41:13;33.20;99.90
48752;DHT22;34544;48.836;9.174;2023-06-22T09:43:38;33.50;99.90
48752;DHT22;34544;48.836;9.174;2023-06-22T09:46:04;33.50;98.60
48752;DHT22;34544;48.836;9.174;2023-06-22T09:48:29;33.50;98.70
48752;DHT22;34544;48.836;9.174;2023-06-22T09:50:56;33.40;98.80
48752;DHT22;34544;48.836;9.174;2023-06-22T09:53:21;33.70;98.30
48752;DHT22;34544;48.836;9.174;2023-06-22T09:55:47;33.80;98.70
48752;DHT22;34544;48.836;9.174;2023-06-22T09:58:13;34.10;99.30
48752;DHT22;34544;48.836;9.174;2023-06-22T10:00:39;34.40;98.90
48752;DHT22;34544;48.836;9.174;2023-06-22T10:03:06;34.60;98.90
48752;DHT22;34544;48.836;9.174;2023-06-22T10:05:32;34.90;98.10
48752;DHT22;34544;48.836;9.174;2023-06-22T10:07:57;35.20;97.30
48752;DHT22;34544;48.836;9.174;2023-06-22T10:10:23;35.10;96.50
48752;DHT22;34544;48.836;9.174;2023-06-22T10:12:56;35.00;96.60
48752;DHT22;34544;48.836;9.174;2023-06-22T10:15:23;34.90;97.30
48752;DHT22;34544;48.836;9.174;2023-06-22T10:17:48;34.80;97.70
48752;DHT22;34544;48.836;9.174;2023-06-22T10:20:14;34.70;96.40
48752;DHT22;34544;48.836;9.174;2023-06-22T10:22:42;34.60;97.30
48752;DHT22;34544;48.836;9.174;2023-06-22T10:25:08;34.30;97.40
48752;DHT22;34544;48.836;9.174;2023-06-22T10:27:34;34.30;97.40
48752;DHT22;34544;48.836;9.174;2023-06-22T10:29:59;34.40;96.60
48752;DHT22;34544;48.836;9.174;2023-06-22T10:32:25;34.60;97.30
48752;DHT22;34544;48.836;9.174;2023-06-22T10:34:51;34.90;96.50
48752;DHT22;34544;48.836;9.174;2023-06-22T10:37:16;35.30;96.40
48752;DHT22;34544;48.836;9.174;2023-06-22T10:39:42;35.70;95.40
48752;DHT22;34544;48.836;9.174;2023-06-22T10:42:08;35.90;94.60
48752;DHT22;34544;48.836;9.174;2023-06-22T10:44:33;36.10;94.70
48752;DHT22;34544;48.836;9.174;2023-06-22T10:46:59;36.20;94.50
48752;DHT22;34544;48.836;9.174;2023-06-22T10:49:25;36.30;94.60
48752;DHT22;34544;48.836;9.174;2023-06-22T10:51:50;36.50;94.50
48752;DHT22;34544;48.836;9.174;2023-06-22T10:54:16;36.40;94.50
48752;DHT22;34544;48.836;9.174;2023-06-22T10:56:43;36.30;93.40
48752;DHT22;34544;48.836;9.174;2023-06-22T10:59:09;36.10;94.70
48752;DHT22;34544;48.836;9.174;2023-06-22T11:01:35;35.90;93.90
48752;DHT22;34544;48.836;9.174;2023-06-22T11:04:02;35.80;95.20
48752;DHT22;34544;48.836;9.174;2023-06-22T11:06:28;35.50;94.20
48752;DHT22;34544;48.836;9.174;2023-06-22T11:08:54;35.20;94.80
48752;DHT22;34544;48.836;9.174;2023-06-22T11:11:19;35.10;95.80
48752;DHT22;34544;48.836;9.174;2023-06-22T11:13:45;35.00;95.40
48752;DHT22;34544;48.836;9.174;2023-06-22T11:16:11;34.90;95.10
48752;DHT22;34544;48.836;9.174;2023-06-22T11:18:37;34.80;96.00
48752;DHT22;34544;48.836;9.174;2023-06-22T11:21:03;34.70;95.50
48752;DHT22;34544;48.836;9.174;2023-06-22T11:23:28;34.50;94.90
48752;DHT22;34544;48.836;9.174;2023-06-22T11:25:54;34.30;95.00
48752;DHT22;34544;48.836;9.174;2023-06-22T11:28:20;34.10;95.90
48752;DHT22;34544;48.836;9.174;2023-06-22T11:30:46;34.00;96.30
48752;DHT22;34544;48.836;9.174;2023-06-22T11:33:11;33.80;95.70
48752;DHT22;34544;48.836;9.174;2023-06-22T11:35:37;33.60;96.30
48752;DHT22;34544;48.836;9.174;2023-06-22T11:38:03;33.50;97.00
48752;DHT22;34544;48.836;9.174;2023-06-22T11:40:30;33.50;96.60
48752;DHT22;34544;48.836;9.174;2023-06-22T11:42:55;33.40;95.90
48752;DHT22;34544;48.836;9.174;2023-06-22T11:45:21;33.40;95.90
48752;DHT22;34544;48.836;9.174;2023-06-22T11:47:47;33.40;96.30
48752;DHT22;34544;48.836;9.174;2023-06-22T11:50:12;33.40;96.40
48752;DHT22;34544;48.836;9.174;2023-06-22T11:52:38;33.50;96.80
48752;DHT22;34544;48.836;9.174;2023-06-22T11:55:04;33.50;97.40
48752;DHT22;34544;48.836;9.174;2023-06-22T11:57:33;33.60;96.00
48752;DHT22;34544;48.836;9.174;2023-06-22T11:59:59;33.60;95.60
48752;DHT22;34544;48.836;9.174;2023-06-22T12:02:25;33.50;96.80
48752;DHT22;34544;48.836;9.174;2023-06-22T12:04:51;33.40;97.20
48752;DHT22;34544;48.836;9.174;2023-06-22T12:07:18;33.30;95.90
48752;DHT22;34544;48.836;9.174;2023-06-22T12:09:46;33.10;96.10
48752;DHT22;34544;48.836;9.174;2023-06-22T12:12:12;32.90;96.30
48752;DHT22;34544;48.836;9.174;2023-06-22T12:14:37;32.80;96.80
48752;DHT22;34544;48.836;9.174;2023-06-22T12:17:03;32.70;96.90
48752;DHT22;34544;48.836;9.174;2023-06-22T12:19:29;32.70;97.20
48752;DHT22;34544;48.836;9.174;2023-06-22T12:21:54;32.60;96.80
48752;DHT22;34544;48.836;9.174;2023-06-22T12:24:20;32.50;96.80
48752;DHT22;34544;48.836;9.174;2023-06-22T12:26:46;32.30;96.70
48752;DHT22;34544;48.836;9.174;2023-06-22T12:29:11;32.30;96.60
48752;DHT22;34544;48.836;9.174;2023-06-22T12:31:37;32.20;96.70
48752;DHT22;34544;48.836;9.174;2023-06-22T12:34:04;32.30;97.50
48752;DHT22;34544;48.836;9.174;2023-06-22T12:36:30;32.40;96.50
48752;DHT22;34544;48.836;9.174;2023-06-22T12:38:56;32.50;96.90
48752;DHT22;34544;48.836;9.174;2023-06-22T12:41:22;32.50;97.00
48752;DHT22;34544;48.836;9.174;2023-06-22T12:43:47;32.40;96.80
48752;DHT22;34544;48.836;9.174;2023-06-22T12:46:13;32.40;96.50
48752;DHT22;34544;48.836;9.174;2023-06-22T12:48:38;32.40;96.70
48752;DHT22;34544;48.836;9.174;2023-06-22T12:51:08;32.40;96.30
48752;DHT22;34544;48.836;9.174;2023-06-22T12:53:34;32.40;96.10
48752;DHT22;34544;48.836;9.174;2023-06-22T12:56:00;32.40;96.60
48752;DHT22;34544;48.836;9.174;2023-06-22T12:58:26;32.40;96.60
48752;DHT22;34544;48.836;9.174;2023-06-22T13:00:51;32.30;96.70
48752;DHT22;34544;48.836;9.174;2023-06-22T13:03:17;32.20;97.10
48752;DHT22;34544;48.836;9.174;2023-06-22T13:05:43;32.10;97.40
48752;DHT22;34544;48.836;9.174;2023-06-22T13:08:08;31.90;97.50
48752;DHT22;34544;48.836;9.174;2023-06-22T13:10:34;31.90;97.80
48752;DHT22;34544;48.836;9.174;2023-06-22T13:13:00;31.90;97.70
48752;DHT22;34544;48.836;9.174;2023-06-22T13:15:29;31.90;97.80
48752;DHT22;34544;48.836;9.174;2023-06-22T13:17:55;31.80;97.90
48752;DHT22;34544;48.836;9.174;2023-06-22T13:20:21;31.80;98.20
48752;DHT22;34544;48.836;9.174;2023-06-22T13:22:46;31.80;98.30
48752;DHT22;34544;48.836;9.174;2023-06-22T13:25:12;31.80;98.40
48752;DHT22;34544;48.836;9.174;2023-06-22T13:27:41;31.80;98.80
48752;DHT22;34544;48.836;9.174;2023-06-22T13:30:08;31.90;98.70
48752;DHT22;34544;48.836;9.174;2023-06-22T13:32:34;32.00;98.40
48752;DHT22;34544;48.836;9.174;2023-06-22T13:34:59;32.20;98.10
48752;DHT22;34544;48.836;9.174;2023-06-22T13:37:26;32.30;98.10
48752;DHT22;34544;48.836;9.174;2023-06-22T13:39:51;32.30;97.90
48752;DHT22;34544;48.836;9.174;2023-06-22T13:42:17;32.40;97.80
48752;DHT22;34544;48.836;9.174;2023-06-22T13:44:43;32.40;98.60
48752;DHT22;34544;48.836;9.174;2023-06-22T13:47:08;32.60;97.80
48752;DHT22;34544;48.836;9.174;2023-06-22T13:49:34;32.70;97.90
48752;DHT22;34544;48.836;9.174;2023-06-22T13:52:00;32.70;97.50
48752;DHT22;34544;48.836;9.174;2023-06-22T13:54:26;32.80;97.20
48752;DHT22;34544;48.836;9.174;2023-06-22T13:56:51;32.70;97.50
48752;DHT22;34544;48.836;9.174;2023-06-22T13:59:18;32.70;97.60
48752;DHT22;34544;48.836;9.174;2023-06-22T14:01:45;32.60;97.70
48752;DHT22;34544;48.836;9.174;2023-06-22T14:04:11;32.60;97.50
48752;DHT22;34544;48.836;9.174;2023-06-22T14:06:37;32.60;97.70
48752;DHT22;34544;48.836;9.174;2023-06-22T14:09:03;32.60;97.60
48752;DHT22;34544;48.836;9.174;2023-06-22T14:11:28;32.60;97.50
48752;DHT22;34544;48.836;9.174;2023-06-22T14:13:54;32.60;97.70
48752;DHT22;34544;48.836;9.174;2023-06-22T14:16:20;32.50;97.00
48752;DHT22;34544;48.836;9.174;2023-06-22T14:18:45;32.60;96.90
48752;DHT22;34544;48.836;9.174;2023-06-22T14:21:11;32.50;96.40
48752;DHT22;34544;48.836;9.174;2023-06-22T14:23:36;32.70;96.60
48752;DHT22;34544;48.836;9.174;2023-06-22T14:26:03;33.10;97.60
48752;DHT22;34544;48.836;9.174;2023-06-22T14:28:29;33.80;96.50
48752;DHT22;34544;48.836;9.174;2023-06-22T14:30:54;34.40;95.50
48752;DHT22;34544;48.836;9.174;2023-06-22T14:33:21;34.50;94.40
48752;DHT22;34544;48.836;9.174;2023-06-22T14:35:47;34.30;94.50
48752;DHT22;34544;48.836;9.174;2023-06-22T14:38:13;34.20;95.00
48752;DHT22;34544;48.836;9.174;2023-06-22T14:40:38;34.00;95.20
48752;DHT22;34544;48.836;9.174;2023-06-22T14:43:04;34.10;95.40
48752;DHT22;34544;48.836;9.174;2023-06-22T14:45:29;34.20;95.30
48752;DHT22;34544;48.836;9.174;2023-06-22T14:47:55;34.20;95.00
48752;DHT22;34544;48.836;9.174;2023-06-22T14:50:21;34.40;95.10
48752;DHT22;34544;48.836;9.174;2023-06-22T14:52:46;34.90;94.30
48752;DHT22;34544;48.836;9.174;2023-06-22T14:55:12;35.50;93.30
48752;DHT22;34544;48.836;9.174;2023-06-22T14:57:37;35.80;92.60
48752;DHT22;34544;48.836;9.174;2023-06-22T15:00:04;36.20;92.60
48752;DHT22;34544;48.836;9.174;2023-06-22T15:02:31;36.40;90.00
48752;DHT22;34544;48.836;9.174;2023-06-22T15:04:57;36.90;90.30
48752;DHT22;34544;48.836;9.174;2023-06-22T15:07:23;36.90;84.60
48752;DHT22;34544;48.836;9.174;2023-06-22T15:09:48;36.80;79.20
48752;DHT22;34544;48.836;9.174;2023-06-22T15:12:14;36.70;78.20
48752;DHT22;34544;48.836;9.174;2023-06-22T15:14:43;36.70;78.20
48752;DHT22;34544;48.836;9.174;2023-06-22T15:17:09;36.80;76.20
48752;DHT22;34544;48.836;9.174;2023-06-22T15:19:36;36.70;76.80
48752;DHT22;34544;48.836;9.174;2023-06-22T15:22:04;36.90;78.80
48752;DHT22;34544;48.836;9.174;2023-06-22T15:24:30;37.00;75.70
48752;DHT22;34544;48.836;9.174;2023-06-22T15:26:56;37.10;75.10
48752;DHT22;34544;48.836;9.174;2023-06-22T15:29:21;37.30;74.40
48752;DHT22;34544;48.836;9.174;2023-06-22T15:31:47;37.50;75.40
48752;DHT22;34544;48.836;9.174;2023-06-22T15:34:15;37.20;73.40
48752;DHT22;34544;48.836;9.174;2023-06-22T15:36:41;37.30;73.70
48752;DHT22;34544;48.836;9.174;2023-06-22T15:39:06;37.50;73.80
48752;DHT22;34544;48.836;9.174;2023-06-22T15:41:32;37.70;73.50
48752;DHT22;34544;48.836;9.174;2023-06-22T15:43:58;37.00;73.60
48752;DHT22;34544;48.836;9.174;2023-06-22T15:46:24;36.60;73.90
48752;DHT22;34544;48.836;9.174;2023-06-22T15:48:49;36.00;74.40
48752;DHT22;34544;48.836;9.174;2023-06-22T15:51:15;35.50;74.50
48752;DHT22;34544;48.836;9.174;2023-06-22T15:53:41;34.70;75.00
48752;DHT22;34544;48.836;9.174;2023-06-22T15:56:07;34.50;76.00
48752;DHT22;34544;48.836;9.174;2023-06-22T15:58:38;34.30;76.10
48752;DHT22;34544;48.836;9.174;2023-06-22T16:01:06;34.10;76.80